Athol, New York
Current Conditions -  °F | °C
As of 6:53 PM on Sunday 25 Jan 2015 (Local Time) from KGFL Reporting Station
Clear Clear  
Wind Chill:   Ceiling: Unl
Heat Index: 18°   Visibility: 10mi
Dew Point:   Wind: 10mph
Humidity: 45%   Direction: 340°NNW
Pressure: 29.96"   Gusts: NA
Location:  43.46°N, 73.9°W
Report Text: KGFL 252353Z AUTO 34009KT 10SM CLR M08/M18 A2996 RMK AO2 SLP157 T10781178 11039 21078 51043
Loading
Personal Weather Stations






























Interactive Weather Map New forecast layout! Learn more

10-Day Weather Forecast

Advertisements
Track Severe Weather on mobile